Time;durP1;ratioP1;P1;durP2;ratioP2;P2;SDS_P1;SDS_P2;PMS_P1;PMS_P2;Temp;Humidity;BMP_temperature;BMP_pressure;BME280_temperature;BME280_humidity;BME280_pressure;Samples;Min_cycle;Max_cycle;Signal;HPM_P1;HPM_P2
2023/11/05 00:01:57;;;;;;;18.63;5.85;;;;;;;8.91;100.00;96968.13;10500438;28;20448;-72
2023/11/05 00:06:58;;;;;;;29.08;5.13;;;;;;;8.81;100.00;96959.03;10499254;28;20037;-71
2023/11/05 00:11:58;;;;;;;10.70;3.83;;;;;;;8.81;100.00;96964.44;10497272;28;20380;-71
2023/11/05 00:16:59;;;;;;;14.50;4.15;;;;;;;8.74;100.00;96960.41;10498224;28;20028;-72
2023/11/05 00:21:59;;;;;;;8.98;5.70;;;;;;;8.83;100.00;96958.72;10504341;28;20057;-71
2023/11/05 00:26:59;;;;;;;13.25;5.35;;;;;;;8.79;100.00;96942.31;10513861;28;20056;-72
2023/11/05 00:32:00;;;;;;;11.75;4.30;;;;;;;8.82;100.00;96941.75;10500433;28;20381;-71
2023/11/05 00:37:00;;;;;;;17.35;5.05;;;;;;;8.89;100.00;96929.81;10500082;28;20032;-71
2023/11/05 00:42:01;;;;;;;12.52;4.20;;;;;;;8.85;100.00;96930.38;10498012;28;20043;-71
2023/11/05 00:47:01;;;;;;;13.93;4.50;;;;;;;8.94;100.00;96930.59;10498006;28;20035;-70
2023/11/05 00:52:01;;;;;;;14.82;5.60;;;;;;;9.01;100.00;96931.06;10514445;28;20033;-70
2023/11/05 00:57:02;;;;;;;11.82;4.57;;;;;;;9.11;100.00;96922.06;10497286;28;20464;-71
2023/11/05 01:02:02;;;;;;;21.77;4.78;;;;;;;9.25;100.00;96922.16;10512922;28;20109;-71
2023/11/05 01:07:03;;;;;;;13.95;4.97;;;;;;;9.31;100.00;96931.81;10497435;28;20029;-70
2023/11/05 01:12:04;;;;;;;13.25;5.22;;;;;;;9.40;100.00;96935.50;10497095;28;20039;-70
2023/11/05 01:17:04;;;;;;;19.95;6.72;;;;;;;9.43;100.00;96929.53;10495925;28;20043;-71
2023/11/05 01:22:05;;;;;;;13.50;5.25;;;;;;;9.51;100.00;96920.81;10495884;28;20124;-70
2023/11/05 01:27:06;;;;;;;13.13;3.65;;;;;;;9.54;100.00;96914.03;10494270;28;20052;-71
2023/11/05 01:32:07;;;;;;;11.02;3.15;;;;;;;9.56;100.00;96917.22;10497112;28;20483;-71
2023/11/05 01:37:08;;;;;;;14.63;2.97;;;;;;;9.59;100.00;96907.75;10494468;28;20073;-71
2023/11/05 01:42:08;;;;;;;14.65;4.57;;;;;;;9.52;100.00;96905.41;10496498;28;20116;-70
2023/11/05 01:47:09;;;;;;;10.40;3.40;;;;;;;9.48;100.00;96910.59;10494208;28;20464;-70
2023/11/05 01:52:10;;;;;;;9.23;2.30;;;;;;;9.42;100.00;96908.22;10495775;28;20115;-70
2023/11/05 01:57:10;;;;;;;10.52;4.35;;;;;;;9.52;100.00;96908.91;10495569;28;20032;-71
2023/11/05 02:02:10;;;;;;;9.27;3.17;;;;;;;9.66;100.00;96910.91;10494488;28;20123;-70
2023/11/05 02:07:11;;;;;;;6.47;2.88;;;;;;;9.78;100.00;96905.88;10495250;28;20542;-70
2023/11/05 02:12:11;;;;;;;23.63;4.18;;;;;;;9.83;100.00;96905.84;10494283;28;20117;-70
2023/11/05 02:17:11;;;;;;;6.10;2.40;;;;;;;9.77;100.00;96913.19;10495128;28;20115;-70
2023/11/05 02:22:14;;;;;;;5.82;3.20;;;;;;;9.81;100.00;96899.91;10494441;28;20083;-70
2023/11/05 02:27:15;;;;;;;3.05;2.10;;;;;;;9.85;100.00;96900.13;10495466;28;20036;-70
2023/11/05 02:32:15;;;;;;;10.15;2.60;;;;;;;9.78;100.00;96897.78;10494186;28;20465;-70
2023/11/05 02:37:16;;;;;;;6.10;2.97;;;;;;;9.77;100.00;96898.88;10494039;28;20135;-70
2023/11/05 02:42:16;;;;;;;4.20;2.92;;;;;;;9.72;100.00;96896.25;10493772;28;20416;-70
2023/11/05 02:47:16;;;;;;;13.93;3.72;;;;;;;9.67;100.00;96899.81;10494808;28;20041;-70
2023/11/05 02:52:17;;;;;;;3.03;2.30;;;;;;;9.66;100.00;96886.59;10493320;28;20094;-70
2023/11/05 02:57:20;;;;;;;5.97;3.60;;;;;;;9.59;100.00;96892.34;10493972;28;20037;-70
2023/11/05 03:02:21;;;;;;;4.22;3.80;;;;;;;9.60;100.00;96882.34;10493612;28;20523;-70
2023/11/05 03:07:21;;;;;;;5.70;3.38;;;;;;;9.58;100.00;96881.84;10491110;28;20143;-70
2023/11/05 03:12:21;;;;;;;7.80;4.80;;;;;;;9.50;100.00;96877.88;10509248;28;20447;-70
2023/11/05 03:17:22;;;;;;;10.82;5.05;;;;;;;9.49;100.00;96887.09;10493190;28;20040;-70
2023/11/05 03:22:22;;;;;;;12.02;4.38;;;;;;;9.54;100.00;96874.31;10494395;28;20059;-70
2023/11/05 03:27:22;;;;;;;17.58;6.20;;;;;;;9.50;100.00;96870.56;10493580;28;20041;-70
2023/11/05 03:32:23;;;;;;;13.93;6.25;;;;;;;9.46;100.00;96882.25;10492985;28;20468;-70
2023/11/05 03:37:23;;;;;;;4.05;3.70;;;;;;;9.47;100.00;96887.34;10492187;28;20068;-70
2023/11/05 03:42:24;;;;;;;9.50;5.07;;;;;;;9.49;100.00;96895.19;10508352;28;20111;-70
2023/11/05 03:47:25;;;;;;;6.60;4.43;;;;;;;9.53;100.00;96888.91;10492837;28;20032;-70
2023/11/05 03:52:25;;;;;;;8.55;4.97;;;;;;;9.57;100.00;96899.94;10499818;28;20060;-70
2023/11/05 03:57:26;;;;;;;11.27;5.28;;;;;;;9.51;100.00;96891.09;10482612;28;20052;-70
2023/11/05 04:02:26;;;;;;;7.80;4.72;;;;;;;9.61;100.00;96900.19;10499350;28;20083;-70
2023/11/05 04:07:26;;;;;;;14.40;5.90;;;;;;;9.67;100.00;96899.03;10497965;28;20090;-70
2023/11/05 04:12:27;;;;;;;8.63;4.63;;;;;;;9.71;100.00;96905.44;10499100;28;20036;-70
2023/11/05 04:17:27;;;;;;;9.50;3.90;;;;;;;9.77;100.00;96904.28;10498718;28;20531;-70
2023/11/05 04:22:28;;;;;;;16.52;6.13;;;;;;;9.76;100.00;96898.09;10498330;28;20048;-70
2023/11/05 04:27:28;;;;;;;14.27;4.75;;;;;;;9.79;100.00;96907.50;10498721;28;20476;-70
2023/11/05 04:32:28;;;;;;;14.13;4.60;;;;;;;9.89;100.00;96912.78;10498591;28;20106;-70
2023/11/05 04:37:29;;;;;;;6.13;3.63;;;;;;;9.86;100.00;96915.22;10499463;28;20033;-70
2023/11/05 04:42:29;;;;;;;9.27;4.07;;;;;;;9.91;100.00;96912.47;10498918;28;20040;-70
2023/11/05 04:47:30;;;;;;;6.93;3.17;;;;;;;9.96;100.00;96912.41;10497984;28;20559;-71
2023/11/05 04:52:30;;;;;;;11.98;4.05;;;;;;;10.01;100.00;96910.44;10497609;28;20127;-71
2023/11/05 04:57:30;;;;;;;8.63;5.13;;;;;;;10.06;100.00;96916.88;10497627;28;20384;-70
2023/11/05 05:02:31;;;;;;;5.72;4.47;;;;;;;10.05;100.00;96912.53;10497444;28;20041;-70
2023/11/05 05:07:31;;;;;;;10.82;4.78;;;;;;;10.04;100.00;96916.34;10511717;28;20040;-71
2023/11/05 05:12:33;;;;;;;11.07;3.97;;;;;;;10.12;100.00;96924.63;10496587;28;20064;-70
2023/11/05 05:17:34;;;;;;;17.80;4.68;;;;;;;10.12;100.00;96930.03;10496016;28;20032;-70
2023/11/05 05:22:34;;;;;;;12.05;4.50;;;;;;;10.13;100.00;96928.91;10497123;28;20424;-70
2023/11/05 05:27:34;;;;;;;7.85;3.95;;;;;;;10.16;100.00;96932.94;10495558;28;20040;-70
2023/11/05 05:32:35;;;;;;;7.68;3.30;;;;;;;10.20;100.00;96939.38;10496128;28;20033;-70
2023/11/05 05:37:35;;;;;;;17.42;4.50;;;;;;;10.25;100.00;96936.59;10495886;28;20032;-70
2023/11/05 05:42:36;;;;;;;4.45;3.80;;;;;;;10.27;100.00;96947.16;10495754;28;20044;-70
2023/11/05 05:47:37;;;;;;;8.98;4.30;;;;;;;10.29;100.00;96945.75;10495530;28;20047;-70
2023/11/05 05:52:37;;;;;;;10.05;3.90;;;;;;;10.33;100.00;96944.06;10510862;28;20041;-70
2023/11/05 05:57:39;;;;;;;7.82;3.17;;;;;;;10.31;100.00;96950.91;10495241;28;20049;-70
2023/11/05 06:02:39;;;;;;;9.45;2.75;;;;;;;10.35;100.00;96951.91;10501393;28;20450;-71
2023/11/05 06:07:40;;;;;;;13.13;5.72;;;;;;;10.38;100.00;96959.44;10498382;28;20105;-70
2023/11/05 06:12:40;;;;;;;14.27;5.25;;;;;;;10.36;100.00;96967.81;10495179;28;20464;-70
2023/11/05 06:17:41;;;;;;;10.38;3.22;;;;;;;10.42;100.00;96963.97;10494246;28;20112;-70
2023/11/05 06:22:41;;;;;;;15.07;4.93;;;;;;;10.45;100.00;96974.19;10497822;28;20049;-70
2023/11/05 06:27:43;;;;;;;11.45;3.65;;;;;;;10.44;100.00;96979.91;10495650;28;20087;-70
2023/11/05 06:32:44;;;;;;;13.27;4.43;;;;;;;10.46;100.00;96988.50;10496344;28;20318;-70
2023/11/05 06:37:44;;;;;;;12.95;4.55;;;;;;;10.46;100.00;96993.91;10493168;28;20052;-70
2023/11/05 06:42:44;;;;;;;14.75;4.28;;;;;;;10.52;100.00;97011.69;10493837;28;20461;-70
2023/11/05 06:47:45;;;;;;;7.22;2.97;;;;;;;10.50;100.00;97018.47;10493897;28;20440;-70
2023/11/05 06:52:45;;;;;;;11.77;5.32;;;;;;;10.46;100.00;97021.81;10491942;28;20136;-70
2023/11/05 06:57:46;;;;;;;7.80;3.88;;;;;;;10.42;100.00;97030.78;10492870;28;20040;-70
2023/11/05 07:02:46;;;;;;;13.07;4.20;;;;;;;10.39;100.00;97037.56;10493594;28;20037;-70
2023/11/05 07:07:47;;;;;;;8.52;3.97;;;;;;;10.42;100.00;97039.69;10493656;28;20032;-70
2023/11/05 07:12:47;;;;;;;7.80;5.10;;;;;;;10.27;100.00;97045.28;10493318;28;20029;-70
2023/11/05 07:17:48;;;;;;;10.85;4.75;;;;;;;10.22;100.00;97056.16;10492344;28;20036;-70
2023/11/05 07:22:48;;;;;;;8.68;3.75;;;;;;;10.14;100.00;97057.56;10496470;28;20052;-70
2023/11/05 07:27:49;;;;;;;14.10;4.88;;;;;;;10.19;100.00;97070.25;10516626;28;20503;-70
2023/11/05 07:32:49;;;;;;;12.25;4.82;;;;;;;10.31;100.00;97075.28;10501325;28;20090;-70
2023/11/05 07:37:50;;;;;;;8.48;4.47;;;;;;;10.39;100.00;97088.94;10499562;28;20413;-70
2023/11/05 07:42:50;;;;;;;4.35;3.53;;;;;;;10.45;100.00;97095.09;10500610;28;20037;-70
2023/11/05 07:47:50;;;;;;;9.68;4.38;;;;;;;10.53;100.00;97102.59;10501106;28;20036;-70
2023/11/05 07:52:51;;;;;;;8.18;3.20;;;;;;;10.61;100.00;97103.81;10500495;28;20142;-70
2023/11/05 07:57:52;;;;;;;7.32;3.53;;;;;;;10.62;100.00;97111.63;10498682;28;20090;-70
2023/11/05 08:02:53;;;;;;;7.15;4.22;;;;;;;10.69;100.00;97119.44;10498003;28;20037;-70
2023/11/05 08:07:53;;;;;;;15.88;4.22;;;;;;;10.73;100.00;97136.69;10499400;28;20037;-69
2023/11/05 08:12:53;;;;;;;6.72;3.47;;;;;;;11.03;100.00;97140.84;10499405;28;20036;-70
2023/11/05 08:17:54;;;;;;;21.88;4.47;;;;;;;11.25;100.00;97145.69;10498798;28;20047;-70
2023/11/05 08:22:54;;;;;;;12.77;3.83;;;;;;;11.36;100.00;97160.69;10499648;28;20458;-70
2023/11/05 08:27:55;;;;;;;14.00;2.90;;;;;;;11.30;100.00;97156.47;10498586;28;20036;-70
2023/11/05 08:32:55;;;;;;;10.45;3.80;;;;;;;11.21;100.00;97163.63;10480656;28;20024;-69
2023/11/05 08:37:57;;;;;;;9.13;3.88;;;;;;;11.16;100.00;97171.81;10498479;28;20441;-71
2023/11/05 08:42:58;;;;;;;12.73;4.20;;;;;;;11.11;100.00;97174.63;10498157;28;20033;-70
2023/11/05 08:47:58;;;;;;;6.57;4.43;;;;;;;11.11;100.00;97186.25;10497938;28;20032;-71
2023/11/05 08:52:59;;;;;;;12.18;4.65;;;;;;;11.17;100.00;97206.75;10497829;28;20082;-70
2023/11/05 08:57:59;;;;;;;4.78;3.85;;;;;;;11.16;100.00;97218.66;10513669;28;20036;-70
2023/11/05 09:03:00;;;;;;;4.55;3.30;;;;;;;11.20;100.00;97227.03;10497442;28;20039;-70
2023/11/05 09:08:01;;;;;;;11.40;5.53;;;;;;;11.20;100.00;97234.31;10497205;28;20441;-70
2023/11/05 09:13:01;;;;;;;4.68;3.85;;;;;;;11.15;100.00;97241.41;10495891;28;20040;-70
2023/11/05 09:18:01;;;;;;;7.60;3.72;;;;;;;11.09;100.00;97268.84;10497095;28;20032;-70
2023/11/05 09:23:02;;;;;;;5.47;3.53;;;;;;;10.89;100.00;97283.44;10495076;28;20088;-69
2023/11/05 09:28:03;;;;;;;4.38;2.80;;;;;;;10.81;100.00;97306.53;10496055;28;20472;-69
2023/11/05 09:33:03;;;;;;;2.83;1.98;;;;;;;10.85;100.00;97323.81;10494669;28;20043;-69
2023/11/05 09:38:03;;;;;;;4.88;1.38;;;;;;;10.85;100.00;97344.66;10496514;28;20040;-68
2023/11/05 09:43:05;;;;;;;7.32;3.03;;;;;;;10.91;100.00;97355.16;10494200;28;20028;-68
2023/11/05 09:48:06;;;;;;;5.65;2.65;;;;;;;11.00;100.00;97376.97;10493295;28;20048;-68
2023/11/05 09:53:11;;;;;;;8.77;4.93;;;;;;;11.35;100.00;97394.72;10493468;28;20072;-69
2023/11/05 09:58:15;;;;;;;6.93;3.38;;;;;;;11.51;100.00;97417.03;10477153;28;20024;-69
2023/11/05 10:03:17;;;;;;;6.13;3.20;;;;;;;11.51;100.00;97436.00;10494068;28;20060;-68
2023/11/05 10:08:17;;;;;;;9.00;3.40;;;;;;;11.59;100.00;97453.56;10494921;28;20067;-68
2023/11/05 10:13:17;;;;;;;7.93;2.97;;;;;;;11.56;100.00;97464.97;10494873;28;20444;-67
2023/11/05 10:18:18;;;;;;;7.03;3.20;;;;;;;11.40;100.00;97478.66;10493537;28;20043;-68
2023/11/05 10:23:18;;;;;;;9.23;3.78;;;;;;;11.67;100.00;97473.78;10494017;28;20049;-69
2023/11/05 10:28:20;;;;;;;9.02;3.17;;;;;;;12.27;100.00;97491.22;10476950;28;20032;-68
2023/11/05 10:33:20;;;;;;;2.78;2.22;;;;;;;12.45;100.00;97505.91;10495387;28;20040;-68
2023/11/05 10:38:23;;;;;;;16.35;4.40;;;;;;;12.07;100.00;97527.56;10494364;28;20120;-69
2023/11/05 10:43:25;;;;;;;4.03;3.45;;;;;;;12.01;100.00;97525.19;10495611;28;20171;-69
2023/11/05 10:48:28;;;;;;;7.35;4.05;;;;;;;11.72;100.00;97541.50;10495531;28;20028;-73
2023/11/05 10:53:29;;;;;;;6.30;4.47;;;;;;;11.70;100.00;97558.03;10495328;28;20028;-69
2023/11/05 10:58:38;;;;;;;4.63;3.88;;;;;;;11.53;100.00;97572.03;10497303;28;20449;-69
2023/11/05 11:03:39;;;;;;;7.88;3.38;;;;;;;11.57;100.00;97577.69;10502251;28;20031;-69
2023/11/05 11:08:39;;;;;;;8.10;3.25;;;;;;;11.50;100.00;97590.75;10500225;28;20036;-69
2023/11/05 11:13:52;;;;;;;3.47;2.97;;;;;;;11.51;100.00;97598.59;10483579;28;20460;-69
2023/11/05 11:18:53;;;;;;;4.07;2.60;;;;;;;11.49;100.00;97613.53;10500757;28;20032;-69
2023/11/05 11:23:54;;;;;;;3.38;2.92;;;;;;;11.56;100.00;97622.13;10503102;28;20125;-69
2023/11/05 11:29:00;;;;;;;6.80;4.38;;;;;;;11.33;100.00;97635.31;10500393;28;20068;-68
2023/11/05 11:34:01;;;;;;;7.75;2.60;;;;;;;11.26;100.00;97642.94;10499141;28;20452;-69
2023/11/05 11:39:01;;;;;;;10.10;3.72;;;;;;;11.39;100.00;97650.44;10502181;28;20044;-69
2023/11/05 11:44:05;;;;;;;5.75;2.30;;;;;;;11.46;100.00;97679.13;10504220;28;20357;-69
2023/11/05 11:49:12;;;;;;;3.63;2.08;;;;;;;11.34;100.00;97685.69;10499934;28;20063;-68
2023/11/05 11:54:12;;;;;;;;;;;;;;;11.16;100.00;97708.00;10501783;28;20044;-68
2023/11/05 11:59:13;;;;;;;13.90;3.47;;;;;;;11.09;100.00;97713.72;10500344;28;20303;-69
2023/11/05 12:04:14;;;;;;;12.43;2.65;;;;;;;10.98;100.00;97724.91;10499927;28;20028;-68
2023/11/05 12:09:24;;;;;;;11.77;3.63;;;;;;;11.27;100.00;97742.09;10498508;28;20463;-69
2023/11/05 12:14:27;;;;;;;24.52;4.88;;;;;;;11.34;100.00;97749.91;10501329;28;20043;-68
2023/11/05 12:19:29;;;;;;;10.07;3.20;;;;;;;11.51;100.00;97765.78;10482420;28;20039;-69
2023/11/05 12:24:30;;;;;;;15.90;2.83;;;;;;;11.52;100.00;97768.22;10499031;28;20376;-68
2023/11/05 12:29:31;;;;;;;10.48;4.32;;;;;;;11.40;100.00;97784.00;10497436;28;20036;-69
2023/11/05 12:34:31;;;;;;;11.07;3.20;;;;;;;11.54;100.00;97795.03;10499468;28;20040;-69
2023/11/05 12:39:32;;;;;;;7.05;2.42;;;;;;;11.56;100.00;97803.69;10498242;28;20032;-69
2023/11/05 12:44:32;;;;;;;6.93;3.28;;;;;;;11.35;100.00;97835.50;10499508;28;20097;-68
2023/11/05 12:49:33;;;;;;;8.30;4.00;;;;;;;11.17;100.00;97853.19;10513521;28;20516;-68
2023/11/05 12:54:33;;;;;;;6.97;4.60;;;;;;;11.12;100.00;97870.25;10479995;28;20032;-68
2023/11/05 12:59:34;;;;;;;10.50;4.65;;;;;;;11.04;100.00;97895.19;10497890;28;20048;-68
2023/11/05 13:04:35;;;;;;;9.43;3.88;;;;;;;11.07;100.00;97899.22;10496792;28;20472;-68
2023/11/05 13:09:35;;;;;;;6.80;3.25;;;;;;;10.97;100.00;97907.38;10479695;28;20040;-68
2023/11/05 13:14:36;;;;;;;10.00;4.35;;;;;;;11.11;100.00;97916.56;10495496;28;20044;-68
2023/11/05 13:19:37;;;;;;;8.27;3.45;;;;;;;11.12;100.00;97935.25;10494174;28;20063;-69
2023/11/05 13:24:37;;;;;;;14.90;4.55;;;;;;;11.05;100.00;97959.09;10496376;28;20033;-69
2023/11/05 13:29:37;;;;;;;9.10;4.40;;;;;;;10.94;100.00;97971.00;10496279;28;20469;-69
2023/11/05 13:34:38;;;;;;;11.35;6.38;;;;;;;11.01;100.00;97993.22;10495932;28;20041;-69
2023/11/05 13:39:41;;;;;;;11.18;4.50;;;;;;;10.92;100.00;98000.25;10496571;28;20155;-68
2023/11/05 13:44:41;;;;;;;4.85;3.72;;;;;;;10.85;100.00;98030.31;10496676;28;20064;-68
2023/11/05 13:49:41;;;;;;;14.90;5.00;;;;;;;10.84;100.00;98036.78;10495284;28;20033;-69
2023/11/05 13:54:42;;;;;;;17.20;4.45;;;;;;;10.92;100.00;98049.81;10494537;28;20036;-69
2023/11/05 13:59:45;;;;;;;6.90;3.47;;;;;;;10.93;100.00;98062.25;10493843;28;20029;-70
2023/11/05 14:04:46;;;;;;;7.53;3.15;;;;;;;10.93;100.00;98085.81;10494168;28;20037;-69
2023/11/05 14:09:46;;;;;;;13.07;3.72;;;;;;;10.89;100.00;98090.94;10494735;28;20080;-71
2023/11/05 14:14:46;;;;;;;11.68;4.13;;;;;;;10.96;100.00;98108.84;10510541;28;20032;-70
2023/11/05 14:19:47;;;;;;;15.75;4.70;;;;;;;10.92;100.00;98125.63;10495910;28;20437;-70
2023/11/05 14:24:47;;;;;;;11.02;3.03;;;;;;;11.01;100.00;98133.19;10494897;28;20032;-70
2023/11/05 14:29:48;;;;;;;10.30;3.38;;;;;;;11.03;100.00;98155.41;10509694;28;20063;-70
2023/11/05 14:34:48;;;;;;;12.13;3.72;;;;;;;11.15;100.00;98174.94;10491884;28;20048;-70
2023/11/05 14:39:48;;;;;;;9.93;5.25;;;;;;;11.03;100.00;98185.19;10492235;28;20060;-71
2023/11/05 14:44:49;;;;;;;18.58;4.78;;;;;;;10.69;100.00;98196.47;10508732;28;20064;-68
2023/11/05 14:49:49;;;;;;;12.13;4.68;;;;;;;10.69;100.00;98207.31;10493804;28;20048;-69
2023/11/05 14:54:50;;;;;;;8.98;4.32;;;;;;;10.58;100.00;98227.25;10493101;28;20143;-69
2023/11/05 14:59:50;;;;;;;10.93;4.10;;;;;;;10.68;100.00;98247.06;10493825;28;20044;-70
2023/11/05 15:04:51;;;;;;;8.25;4.03;;;;;;;10.64;100.00;98231.63;10493675;28;20020;-69
2023/11/05 15:09:51;;;;;;;21.33;6.28;;;;;;;10.66;100.00;98256.53;10493550;28;20048;-68
2023/11/05 15:14:52;;;;;;;9.70;3.30;;;;;;;10.66;100.00;98270.06;10492091;28;20086;-69
2023/11/05 15:19:53;;;;;;;12.07;3.58;;;;;;;10.71;100.00;98292.53;10493138;28;20368;-68
2023/11/05 15:24:53;;;;;;;10.60;4.97;;;;;;;10.76;100.00;98304.50;10492754;28;20183;-68
2023/11/05 15:29:54;;;;;;;6.93;3.60;;;;;;;10.73;100.00;98322.06;10492740;28;20107;-69
2023/11/05 15:34:58;;;;;;;15.30;4.32;;;;;;;10.85;100.00;98341.63;10493546;28;20427;-71
2023/11/05 15:40:00;;;;;;;5.68;3.63;;;;;;;10.80;100.00;98360.53;10493013;28;20396;-69
2023/11/05 15:45:00;;;;;;;5.63;4.25;;;;;;;10.97;100.00;98375.81;10495468;28;20087;-69
2023/11/05 15:50:01;;;;;;;8.05;3.05;;;;;;;10.96;100.00;98391.25;10500388;28;20082;-69
2023/11/05 15:55:01;;;;;;;9.90;3.42;;;;;;;10.91;100.00;98388.50;10500418;28;20029;-69
2023/11/05 16:00:04;;;;;;;8.65;3.10;;;;;;;10.96;100.00;98422.91;10502333;28;20036;-69
2023/11/05 16:05:05;;;;;;;12.73;3.83;;;;;;;10.96;100.00;98431.03;10498840;28;20028;-68
2023/11/05 16:10:06;;;;;;;5.72;2.53;;;;;;;10.93;100.00;98446.72;10498663;28;20052;-69
2023/11/05 16:15:07;;;;;;;11.38;4.25;;;;;;;11.00;100.00;98456.53;10497305;28;20040;-69
2023/11/05 16:20:09;;;;;;;19.75;3.50;;;;;;;11.07;100.00;98476.06;10498389;28;20052;-68
2023/11/05 16:25:09;;;;;;;10.57;3.53;;;;;;;11.04;100.00;98482.00;10500768;28;20060;-69
2023/11/05 16:30:10;;;;;;;7.10;5.05;;;;;;;10.86;100.00;98494.88;10499329;28;20047;-69
2023/11/05 16:35:11;;;;;;;4.93;3.25;;;;;;;10.94;100.00;98507.94;10514051;28;20127;-69
2023/11/05 16:40:11;;;;;;;17.63;5.25;;;;;;;10.81;100.00;98524.59;10498434;28;20138;-69
2023/11/05 16:45:12;;;;;;;17.80;4.82;;;;;;;10.77;100.00;98545.16;10496751;28;20036;-69
2023/11/05 16:50:13;;;;;;;5.07;2.67;;;;;;;10.89;100.00;98562.06;10498429;28;20040;-69
2023/11/05 16:55:14;;;;;;;7.32;3.45;;;;;;;10.75;100.00;98565.41;10497760;28;20033;-69
2023/11/05 17:00:16;;;;;;;8.35;3.67;;;;;;;10.85;100.00;98590.72;10496745;28;20352;-69
2023/11/05 17:05:17;;;;;;;5.97;3.80;;;;;;;10.90;100.00;98604.28;10496914;28;20040;-69
2023/11/05 17:10:17;;;;;;;9.57;4.13;;;;;;;10.70;100.00;98612.22;10479259;28;20491;-69
2023/11/05 17:15:18;;;;;;;5.75;2.90;;;;;;;10.68;100.00;98623.28;10496933;28;20037;-69
2023/11/05 17:20:18;;;;;;;12.68;4.18;;;;;;;10.62;100.00;98634.31;10497427;28;20207;-69
2023/11/05 17:25:19;;;;;;;3.88;3.58;;;;;;;10.57;100.00;98654.03;10495989;28;20115;-69
2023/11/05 17:30:19;;;;;;;18.30;6.18;;;;;;;10.44;100.00;98663.34;10497393;28;20032;-69
2023/11/05 17:35:20;;;;;;;9.10;3.10;;;;;;;10.45;100.00;98673.09;10495052;28;20036;-69
2023/11/05 17:40:20;;;;;;;9.68;3.25;;;;;;;10.49;100.00;98695.03;10496420;28;20036;-69
2023/11/05 17:45:21;;;;;;;10.02;4.00;;;;;;;10.42;100.00;98699.81;10495129;28;20044;-69
2023/11/05 17:50:24;;;;;;;3.45;2.83;;;;;;;10.60;100.00;98707.66;10495549;28;20506;-69
2023/11/05 17:55:25;;;;;;;49.70;23.58;;;;;;;10.82;100.00;98717.66;10495220;28;20059;-69
2023/11/05 18:00:26;;;;;;;207.77;81.82;;;;;;;10.76;100.00;98735.72;10494531;28;20357;-69
2023/11/05 18:05:26;;;;;;;160.75;62.72;;;;;;;10.93;100.00;98741.88;10495058;28;20037;-69
2023/11/05 18:10:29;;;;;;;7.75;4.72;;;;;;;11.10;100.00;98743.69;10494293;28;20052;-69
2023/11/05 18:15:30;;;;;;;5.07;3.85;;;;;;;11.04;100.00;98759.09;10496783;28;20123;-69
2023/11/05 18:20:30;;;;;;;12.88;4.63;;;;;;;10.96;100.00;98770.34;10494745;28;20473;-68
2023/11/05 18:25:31;;;;;;;8.38;3.53;;;;;;;10.85;100.00;98776.72;10494769;28;20093;-69
2023/11/05 18:30:31;;;;;;;5.40;3.38;;;;;;;10.89;100.00;98781.38;10493642;28;20028;-69
2023/11/05 18:35:34;;;;;;;5.65;2.78;;;;;;;10.91;100.00;98806.31;10493476;28;20028;-69
2023/11/05 18:40:35;;;;;;;6.50;2.92;;;;;;;10.94;100.00;98792.28;10509469;28;20461;-69
2023/11/05 18:45:35;;;;;;;13.40;3.78;;;;;;;11.12;100.00;98812.81;10494014;28;20040;-69
2023/11/05 18:50:36;;;;;;;6.45;2.47;;;;;;;10.86;100.00;98825.19;10494199;28;20102;-69
2023/11/05 18:55:36;;;;;;;6.80;3.25;;;;;;;10.02;100.00;98828.78;10494434;28;20473;-70
2023/11/05 19:00:36;;;;;;;10.93;3.88;;;;;;;9.78;100.00;98829.97;10494632;28;20463;-70
2023/11/05 19:05:37;;;;;;;15.68;4.57;;;;;;;9.80;100.00;98835.13;10494636;28;20112;-70
2023/11/05 19:10:38;;;;;;;4.93;3.10;;;;;;;9.78;100.00;98840.78;10493075;28;20036;-70
2023/11/05 19:15:39;;;;;;;18.73;4.20;;;;;;;9.71;100.00;98851.75;10493399;28;20048;-70
2023/11/05 19:20:39;;;;;;;8.25;2.90;;;;;;;9.69;100.00;98863.84;10498598;28;20440;-70
2023/11/05 19:25:40;;;;;;;6.55;3.17;;;;;;;9.67;100.00;98871.41;10501716;28;20028;-70
2023/11/05 19:30:41;;;;;;;8.65;3.08;;;;;;;9.63;100.00;98884.53;10500585;28;20032;-70
2023/11/05 19:35:42;;;;;;;8.18;3.80;;;;;;;9.73;100.00;98892.03;10501316;28;20461;-70
2023/11/05 19:40:42;;;;;;;10.98;3.83;;;;;;;9.91;100.00;98904.53;10501099;28;20033;-70
2023/11/05 19:45:42;;;;;;;11.80;3.67;;;;;;;9.92;100.00;98912.41;10499640;28;20118;-72
2023/11/05 19:50:43;;;;;;;19.00;4.93;;;;;;;9.84;100.00;98931.72;10501068;28;20108;-71
2023/11/05 19:55:43;;;;;;;7.53;3.38;;;;;;;9.99;100.00;98928.50;10499740;28;20384;-70
2023/11/05 20:00:44;;;;;;;4.40;2.70;;;;;;;9.92;100.00;98949.44;10465053;28;20516;-70
2023/11/05 20:05:44;;;;;;;7.97;3.08;;;;;;;9.78;100.00;98944.31;10499807;28;20032;-70
2023/11/05 20:10:45;;;;;;;12.57;3.20;;;;;;;9.80;100.00;98962.19;10499318;28;20491;-71
2023/11/05 20:15:45;;;;;;;7.80;3.17;;;;;;;9.83;100.00;98967.09;10499283;28;20388;-70
2023/11/05 20:20:46;;;;;;;11.93;3.92;;;;;;;9.98;100.00;98972.81;10497978;28;20057;-69
2023/11/05 20:25:46;;;;;;;5.00;2.85;;;;;;;10.06;100.00;98982.44;10499074;28;20041;-69
2023/11/05 20:30:46;;;;;;;9.13;4.05;;;;;;;10.21;100.00;98983.53;10497591;28;20044;-70
2023/11/05 20:35:49;;;;;;;13.45;3.60;;;;;;;10.30;100.00;99008.31;10479910;28;20448;-71
2023/11/05 20:40:49;;;;;;;17.52;3.28;;;;;;;10.29;100.00;99004.00;10497960;28;20056;-71
2023/11/05 20:45:50;;;;;;;7.72;2.92;;;;;;;10.23;100.00;99016.56;10498126;28;20043;-70
2023/11/05 20:50:50;;;;;;;16.52;4.18;;;;;;;10.20;100.00;99027.88;10513897;28;20043;-70
2023/11/05 20:55:50;;;;;;;13.55;3.22;;;;;;;10.11;100.00;99020.38;10497910;28;20402;-70
2023/11/05 21:00:51;;;;;;;7.40;2.53;;;;;;;10.08;100.00;99021.66;10497591;28;20039;-70
2023/11/05 21:05:51;;;;;;;3.80;2.38;;;;;;;9.94;100.00;99026.53;10497616;28;20476;-70
2023/11/05 21:10:52;;;;;;;11.20;3.30;;;;;;;9.83;100.00;99026.56;10496431;28;20048;-70
2023/11/05 21:15:52;;;;;;;9.50;2.15;;;;;;;9.82;100.00;99036.56;10513312;28;20026;-69
2023/11/05 21:20:52;;;;;;;6.22;2.80;;;;;;;9.80;100.00;99054.91;10495595;28;20427;-70
2023/11/05 21:25:53;;;;;;;10.02;2.97;;;;;;;9.80;100.00;99065.72;10497483;28;20033;-69
2023/11/05 21:30:53;;;;;;;7.07;2.53;;;;;;;9.76;100.00;99065.38;10496317;28;20038;-70
2023/11/05 21:35:54;;;;;;;12.95;3.50;;;;;;;9.75;100.00;99079.13;10496023;28;20387;-70
2023/11/05 21:40:55;;;;;;;9.18;2.47;;;;;;;9.74;100.00;99096.41;10495977;28;20036;-71
2023/11/05 21:45:55;;;;;;;4.90;2.17;;;;;;;9.62;100.00;99106.41;10495948;28;20369;-71
2023/11/05 21:50:56;;;;;;;0.40;0.40;;;;;;;9.56;100.00;99118.97;10510212;28;20174;-71
2023/11/05 21:55:56;;;;;;;0.40;0.40;;;;;;;9.50;100.00;99109.09;10495621;28;20034;-71
2023/11/05 22:00:57;;;;;;;0.40;0.40;;;;;;;9.43;100.00;99125.41;10494905;28;20044;-71
2023/11/05 22:05:57;;;;;;;0.50;0.50;;;;;;;9.48;100.00;99117.44;10494027;28;20138;-71
2023/11/05 22:10:58;;;;;;;1.05;1.05;;;;;;;9.43;100.00;99130.81;10493031;28;20154;-71
2023/11/05 22:15:58;;;;;;;0.80;0.80;;;;;;;9.36;100.00;99130.09;10511017;28;20032;-71
2023/11/05 22:21:02;;;;;;;0.93;0.93;;;;;;;9.19;100.00;99129.13;10495258;28;20048;-70
2023/11/05 22:26:04;;;;;;;0.60;0.60;;;;;;;9.06;100.00;99143.66;10494857;28;20033;-71
2023/11/05 22:31:05;;;;;;;0.40;0.40;;;;;;;8.96;100.00;99146.09;10494259;28;20489;-71
2023/11/05 22:36:06;;;;;;;0.32;0.32;;;;;;;9.01;100.00;99138.97;10494810;28;20481;-71
2023/11/05 22:41:06;;;;;;;0.52;0.52;;;;;;;9.02;100.00;99151.38;10494966;28;20170;-72
2023/11/05 22:46:07;;;;;;;0.45;0.45;;;;;;;8.92;100.00;99144.91;10496882;28;20028;-71
2023/11/05 22:51:17;;;;;;;0.50;0.50;;;;;;;8.93;100.00;99143.84;10499280;28;20090;-72
2023/11/05 22:56:17;;;;;;;0.50;0.50;;;;;;;8.98;100.00;99163.72;10506327;28;20119;-72
2023/11/05 23:01:18;;;;;;;1.00;1.00;;;;;;;9.19;100.00;99166.94;10505069;28;20044;-72